sensor_id;sensor_type;location;lat;lon;timestamp;P1;durP1;ratioP1;P2;durP2;ratioP2
42144;SDS011;27813;43.516;11.890;2024-01-30T00:02:40;3.97;;;2.43;;
42144;SDS011;27813;43.516;11.890;2024-01-30T00:06:46;5.15;;;2.60;;
42144;SDS011;27813;43.516;11.890;2024-01-30T00:10:50;3.25;;;2.28;;
42144;SDS011;27813;43.516;11.890;2024-01-30T00:14:54;3.47;;;2.00;;
42144;SDS011;27813;43.516;11.890;2024-01-30T00:18:58;3.67;;;1.90;;
42144;SDS011;27813;43.516;11.890;2024-01-30T00:23:05;3.47;;;2.13;;
42144;SDS011;27813;43.516;11.890;2024-01-30T00:27:09;5.63;;;3.00;;
42144;SDS011;27813;43.516;11.890;2024-01-30T00:31:13;5.03;;;1.97;;
42144;SDS011;27813;43.516;11.890;2024-01-30T00:35:19;4.40;;;2.38;;
42144;SDS011;27813;43.516;11.890;2024-01-30T00:39:25;3.53;;;2.00;;
42144;SDS011;27813;43.516;11.890;2024-01-30T00:43:29;3.88;;;2.30;;
42144;SDS011;27813;43.516;11.890;2024-01-30T00:51:38;3.47;;;2.20;;
42144;SDS011;27813;43.516;11.890;2024-01-30T00:55:41;3.70;;;1.92;;
42144;SDS011;27813;43.516;11.890;2024-01-30T00:59:45;3.92;;;2.17;;
42144;SDS011;27813;43.516;11.890;2024-01-30T01:03:49;6.13;;;2.57;;
42144;SDS011;27813;43.516;11.890;2024-01-30T01:07:53;15.13;;;4.65;;
42144;SDS011;27813;43.516;11.890;2024-01-30T01:11:57;8.60;;;3.10;;
42144;SDS011;27813;43.516;11.890;2024-01-30T01:16:02;19.70;;;5.75;;
42144;SDS011;27813;43.516;11.890;2024-01-30T01:20:07;6.68;;;3.95;;
42144;SDS011;27813;43.516;11.890;2024-01-30T01:24:11;6.07;;;3.10;;
42144;SDS011;27813;43.516;11.890;2024-01-30T01:28:15;6.18;;;3.53;;
42144;SDS011;27813;43.516;11.890;2024-01-30T01:32:19;6.43;;;3.50;;
42144;SDS011;27813;43.516;11.890;2024-01-30T01:36:24;7.78;;;3.65;;
42144;SDS011;27813;43.516;11.890;2024-01-30T01:40:29;5.18;;;3.15;;
42144;SDS011;27813;43.516;11.890;2024-01-30T01:44:33;9.90;;;3.37;;
42144;SDS011;27813;43.516;11.890;2024-01-30T01:48:37;8.02;;;3.38;;
42144;SDS011;27813;43.516;11.890;2024-01-30T01:52:43;5.25;;;2.40;;
42144;SDS011;27813;43.516;11.890;2024-01-30T01:56:48;3.78;;;2.05;;
42144;SDS011;27813;43.516;11.890;2024-01-30T02:00:52;2.83;;;2.03;;
42144;SDS011;27813;43.516;11.890;2024-01-30T02:04:59;4.03;;;2.03;;
42144;SDS011;27813;43.516;11.890;2024-01-30T02:09:03;5.53;;;3.10;;
42144;SDS011;27813;43.516;11.890;2024-01-30T02:13:08;8.60;;;3.40;;
42144;SDS011;27813;43.516;11.890;2024-01-30T02:17:14;7.95;;;3.50;;
42144;SDS011;27813;43.516;11.890;2024-01-30T02:21:18;6.97;;;2.83;;
42144;SDS011;27813;43.516;11.890;2024-01-30T02:25:40;5.43;;;2.13;;
42144;SDS011;27813;43.516;11.890;2024-01-30T02:29:47;4.22;;;2.50;;
42144;SDS011;27813;43.516;11.890;2024-01-30T02:33:51;5.65;;;2.50;;
42144;SDS011;27813;43.516;11.890;2024-01-30T02:37:55;4.85;;;2.53;;
42144;SDS011;27813;43.516;11.890;2024-01-30T02:41:59;3.88;;;1.80;;
42144;SDS011;27813;43.516;11.890;2024-01-30T02:46:03;4.32;;;2.20;;
42144;SDS011;27813;43.516;11.890;2024-01-30T02:54:13;4.28;;;1.98;;
42144;SDS011;27813;43.516;11.890;2024-01-30T02:58:16;2.63;;;1.83;;
42144;SDS011;27813;43.516;11.890;2024-01-30T03:06:59;4.18;;;1.80;;
42144;SDS011;27813;43.516;11.890;2024-01-30T03:11:04;3.10;;;1.52;;
42144;SDS011;27813;43.516;11.890;2024-01-30T03:15:08;3.58;;;1.88;;
42144;SDS011;27813;43.516;11.890;2024-01-30T03:19:13;6.03;;;1.95;;
42144;SDS011;27813;43.516;11.890;2024-01-30T03:27:22;3.65;;;1.95;;
42144;SDS011;27813;43.516;11.890;2024-01-30T03:31:26;2.30;;;1.50;;
42144;SDS011;27813;43.516;11.890;2024-01-30T03:35:31;2.58;;;1.27;;
42144;SDS011;27813;43.516;11.890;2024-01-30T03:39:35;3.00;;;1.50;;
42144;SDS011;27813;43.516;11.890;2024-01-30T03:43:40;2.53;;;1.60;;
42144;SDS011;27813;43.516;11.890;2024-01-30T03:47:45;2.83;;;1.52;;
42144;SDS011;27813;43.516;11.890;2024-01-30T03:51:49;3.88;;;1.90;;
42144;SDS011;27813;43.516;11.890;2024-01-30T03:55:54;2.90;;;1.40;;
42144;SDS011;27813;43.516;11.890;2024-01-30T03:59:58;2.63;;;1.63;;
42144;SDS011;27813;43.516;11.890;2024-01-30T04:04:13;3.95;;;1.45;;
42144;SDS011;27813;43.516;11.890;2024-01-30T04:08:18;2.20;;;1.27;;
42144;SDS011;27813;43.516;11.890;2024-01-30T04:12:22;4.17;;;1.80;;
42144;SDS011;27813;43.516;11.890;2024-01-30T04:16:26;5.30;;;1.97;;
42144;SDS011;27813;43.516;11.890;2024-01-30T04:20:30;3.33;;;1.53;;
42144;SDS011;27813;43.516;11.890;2024-01-30T04:24:34;4.00;;;2.23;;
42144;SDS011;27813;43.516;11.890;2024-01-30T04:28:40;3.83;;;1.88;;
42144;SDS011;27813;43.516;11.890;2024-01-30T04:32:45;7.13;;;2.92;;
42144;SDS011;27813;43.516;11.890;2024-01-30T04:36:50;8.40;;;3.03;;
42144;SDS011;27813;43.516;11.890;2024-01-30T04:40:54;5.50;;;2.30;;
42144;SDS011;27813;43.516;11.890;2024-01-30T04:44:58;5.97;;;2.00;;
42144;SDS011;27813;43.516;11.890;2024-01-30T04:49:02;7.03;;;2.37;;
42144;SDS011;27813;43.516;11.890;2024-01-30T04:53:07;8.50;;;2.97;;
42144;SDS011;27813;43.516;11.890;2024-01-30T04:57:11;5.83;;;3.00;;
42144;SDS011;27813;43.516;11.890;2024-01-30T05:01:16;4.97;;;2.30;;
42144;SDS011;27813;43.516;11.890;2024-01-30T05:09:25;3.75;;;2.00;;
42144;SDS011;27813;43.516;11.890;2024-01-30T05:13:32;4.00;;;2.33;;
42144;SDS011;27813;43.516;11.890;2024-01-30T05:17:36;6.32;;;2.40;;
42144;SDS011;27813;43.516;11.890;2024-01-30T05:21:41;4.60;;;2.27;;
42144;SDS011;27813;43.516;11.890;2024-01-30T05:25:45;5.00;;;1.75;;
42144;SDS011;27813;43.516;11.890;2024-01-30T05:29:50;2.67;;;2.00;;
42144;SDS011;27813;43.516;11.890;2024-01-30T05:33:54;3.30;;;1.67;;
42144;SDS011;27813;43.516;11.890;2024-01-30T05:37:59;3.58;;;2.15;;
42144;SDS011;27813;43.516;11.890;2024-01-30T05:42:03;3.95;;;1.95;;
42144;SDS011;27813;43.516;11.890;2024-01-30T05:46:08;2.87;;;1.70;;
42144;SDS011;27813;43.516;11.890;2024-01-30T05:50:12;3.60;;;2.20;;
42144;SDS011;27813;43.516;11.890;2024-01-30T05:54:16;4.37;;;2.13;;
42144;SDS011;27813;43.516;11.890;2024-01-30T05:58:20;5.60;;;2.53;;
42144;SDS011;27813;43.516;11.890;2024-01-30T06:02:26;5.57;;;2.20;;
42144;SDS011;27813;43.516;11.890;2024-01-30T06:06:30;7.27;;;3.13;;
42144;SDS011;27813;43.516;11.890;2024-01-30T06:10:37;2.40;;;1.87;;
42144;SDS011;27813;43.516;11.890;2024-01-30T06:14:42;3.90;;;2.35;;
42144;SDS011;27813;43.516;11.890;2024-01-30T06:18:49;6.25;;;3.03;;
42144;SDS011;27813;43.516;11.890;2024-01-30T06:22:53;10.77;;;3.43;;
42144;SDS011;27813;43.516;11.890;2024-01-30T06:26:57;4.60;;;3.10;;
42144;SDS011;27813;43.516;11.890;2024-01-30T06:31:02;4.10;;;2.90;;
42144;SDS011;27813;43.516;11.890;2024-01-30T06:35:06;6.40;;;3.17;;
42144;SDS011;27813;43.516;11.890;2024-01-30T06:39:12;6.57;;;3.28;;
42144;SDS011;27813;43.516;11.890;2024-01-30T06:43:18;7.03;;;2.83;;
42144;SDS011;27813;43.516;11.890;2024-01-30T06:47:23;5.28;;;3.10;;
42144;SDS011;27813;43.516;11.890;2024-01-30T06:51:27;3.87;;;3.00;;
42144;SDS011;27813;43.516;11.890;2024-01-30T06:55:32;5.53;;;3.10;;
42144;SDS011;27813;43.516;11.890;2024-01-30T06:59:36;5.03;;;3.03;;
42144;SDS011;27813;43.516;11.890;2024-01-30T07:03:47;11.82;;;4.18;;
42144;SDS011;27813;43.516;11.890;2024-01-30T07:07:51;8.20;;;3.88;;
42144;SDS011;27813;43.516;11.890;2024-01-30T07:11:56;6.73;;;3.10;;
42144;SDS011;27813;43.516;11.890;2024-01-30T07:16:01;8.32;;;3.65;;
42144;SDS011;27813;43.516;11.890;2024-01-30T07:20:06;9.57;;;3.17;;
42144;SDS011;27813;43.516;11.890;2024-01-30T07:24:18;10.18;;;4.72;;
42144;SDS011;27813;43.516;11.890;2024-01-30T07:28:22;9.70;;;5.18;;
42144;SDS011;27813;43.516;11.890;2024-01-30T07:32:28;10.57;;;4.80;;
42144;SDS011;27813;43.516;11.890;2024-01-30T07:36:32;7.33;;;3.70;;
42144;SDS011;27813;43.516;11.890;2024-01-30T07:40:37;8.03;;;4.30;;
42144;SDS011;27813;43.516;11.890;2024-01-30T07:44:41;5.10;;;2.90;;
42144;SDS011;27813;43.516;11.890;2024-01-30T07:48:45;5.10;;;2.53;;
42144;SDS011;27813;43.516;11.890;2024-01-30T07:52:52;6.90;;;4.60;;
42144;SDS011;27813;43.516;11.890;2024-01-30T07:56:58;18.52;;;9.15;;
42144;SDS011;27813;43.516;11.890;2024-01-30T08:01:03;10.32;;;5.70;;
42144;SDS011;27813;43.516;11.890;2024-01-30T08:05:08;15.03;;;5.67;;
42144;SDS011;27813;43.516;11.890;2024-01-30T08:09:14;6.13;;;3.55;;
42144;SDS011;27813;43.516;11.890;2024-01-30T08:13:19;5.97;;;3.30;;
42144;SDS011;27813;43.516;11.890;2024-01-30T15:58:03;6.75;;;3.90;;
42144;SDS011;27813;43.516;11.890;2024-01-30T16:02:09;7.78;;;4.35;;
42144;SDS011;27813;43.516;11.890;2024-01-30T16:06:14;7.32;;;4.72;;
42144;SDS011;27813;43.516;11.890;2024-01-30T16:10:27;6.57;;;3.95;;
42144;SDS011;27813;43.516;11.890;2024-01-30T16:14:37;8.05;;;4.22;;
42144;SDS011;27813;43.516;11.890;2024-01-30T16:18:42;6.63;;;4.03;;
42144;SDS011;27813;43.516;11.890;2024-01-30T16:22:47;8.30;;;3.67;;
42144;SDS011;27813;43.516;11.890;2024-01-30T16:26:54;241.07;;;76.28;;
42144;SDS011;27813;43.516;11.890;2024-01-30T16:31:02;219.32;;;65.65;;
42144;SDS011;27813;43.516;11.890;2024-01-30T16:35:07;112.15;;;39.45;;
42144;SDS011;27813;43.516;11.890;2024-01-30T16:39:13;85.10;;;30.98;;
42144;SDS011;27813;43.516;11.890;2024-01-30T16:43:17;34.72;;;15.13;;
42144;SDS011;27813;43.516;11.890;2024-01-30T16:47:28;25.05;;;11.32;;
42144;SDS011;27813;43.516;11.890;2024-01-30T16:51:41;19.23;;;8.82;;
42144;SDS011;27813;43.516;11.890;2024-01-30T16:55:47;18.83;;;9.40;;
42144;SDS011;27813;43.516;11.890;2024-01-30T17:03:56;13.68;;;6.57;;
42144;SDS011;27813;43.516;11.890;2024-01-30T17:08:00;9.80;;;5.97;;
42144;SDS011;27813;43.516;11.890;2024-01-30T17:12:04;14.40;;;6.77;;
42144;SDS011;27813;43.516;11.890;2024-01-30T17:16:08;9.43;;;5.40;;
42144;SDS011;27813;43.516;11.890;2024-01-30T17:20:13;9.30;;;4.95;;
42144;SDS011;27813;43.516;11.890;2024-01-30T17:24:19;12.85;;;5.35;;
42144;SDS011;27813;43.516;11.890;2024-01-30T17:28:31;11.75;;;5.88;;
42144;SDS011;27813;43.516;11.890;2024-01-30T17:32:35;11.13;;;5.82;;
42144;SDS011;27813;43.516;11.890;2024-01-30T17:36:40;9.05;;;4.65;;
42144;SDS011;27813;43.516;11.890;2024-01-30T17:40:45;10.23;;;5.00;;
42144;SDS011;27813;43.516;11.890;2024-01-30T17:44:53;9.57;;;5.13;;
42144;SDS011;27813;43.516;11.890;2024-01-30T17:48:59;12.23;;;5.18;;
42144;SDS011;27813;43.516;11.890;2024-01-30T17:53:11;11.93;;;6.05;;
42144;SDS011;27813;43.516;11.890;2024-01-30T17:57:15;15.32;;;7.57;;
42144;SDS011;27813;43.516;11.890;2024-01-30T18:01:20;10.00;;;5.82;;
42144;SDS011;27813;43.516;11.890;2024-01-30T18:05:25;12.43;;;6.77;;
42144;SDS011;27813;43.516;11.890;2024-01-30T18:09:29;12.93;;;5.60;;
42144;SDS011;27813;43.516;11.890;2024-01-30T18:13:35;17.75;;;8.60;;
42144;SDS011;27813;43.516;11.890;2024-01-30T18:17:39;11.70;;;6.63;;
42144;SDS011;27813;43.516;11.890;2024-01-30T18:21:44;9.07;;;5.28;;
42144;SDS011;27813;43.516;11.890;2024-01-30T18:25:48;10.10;;;5.65;;
42144;SDS011;27813;43.516;11.890;2024-01-30T18:29:52;10.50;;;6.27;;
42144;SDS011;27813;43.516;11.890;2024-01-30T18:34:00;10.02;;;5.65;;
42144;SDS011;27813;43.516;11.890;2024-01-30T18:38:05;10.90;;;6.50;;
42144;SDS011;27813;43.516;11.890;2024-01-30T18:42:09;10.88;;;5.72;;
42144;SDS011;27813;43.516;11.890;2024-01-30T18:46:13;11.20;;;5.45;;
42144;SDS011;27813;43.516;11.890;2024-01-30T18:50:19;9.35;;;5.75;;
42144;SDS011;27813;43.516;11.890;2024-01-30T18:54:24;7.97;;;4.80;;
42144;SDS011;27813;43.516;11.890;2024-01-30T18:58:28;12.05;;;6.03;;
42144;SDS011;27813;43.516;11.890;2024-01-30T19:02:33;7.53;;;4.55;;
42144;SDS011;27813;43.516;11.890;2024-01-30T19:06:37;7.95;;;3.55;;
42144;SDS011;27813;43.516;11.890;2024-01-30T19:10:42;9.20;;;5.23;;
42144;SDS011;27813;43.516;11.890;2024-01-30T19:14:49;8.35;;;5.03;;
42144;SDS011;27813;43.516;11.890;2024-01-30T19:18:57;9.27;;;5.82;;
42144;SDS011;27813;43.516;11.890;2024-01-30T19:23:04;11.30;;;5.30;;
42144;SDS011;27813;43.516;11.890;2024-01-30T19:27:09;15.60;;;7.50;;
42144;SDS011;27813;43.516;11.890;2024-01-30T19:31:13;16.42;;;7.50;;
42144;SDS011;27813;43.516;11.890;2024-01-30T19:35:21;12.30;;;5.97;;
42144;SDS011;27813;43.516;11.890;2024-01-30T19:39:33;15.93;;;8.20;;
42144;SDS011;27813;43.516;11.890;2024-01-30T19:43:37;14.25;;;7.70;;
42144;SDS011;27813;43.516;11.890;2024-01-30T19:47:42;19.00;;;8.93;;
42144;SDS011;27813;43.516;11.890;2024-01-30T19:51:46;15.75;;;8.18;;
42144;SDS011;27813;43.516;11.890;2024-01-30T19:55:50;12.30;;;7.13;;
42144;SDS011;27813;43.516;11.890;2024-01-30T19:59:54;17.60;;;8.63;;
42144;SDS011;27813;43.516;11.890;2024-01-30T20:03:59;12.47;;;6.90;;
42144;SDS011;27813;43.516;11.890;2024-01-30T20:08:04;16.30;;;7.93;;
42144;SDS011;27813;43.516;11.890;2024-01-30T20:12:08;11.88;;;7.30;;
42144;SDS011;27813;43.516;11.890;2024-01-30T20:16:12;14.87;;;8.17;;
42144;SDS011;27813;43.516;11.890;2024-01-30T20:20:17;14.55;;;8.60;;
42144;SDS011;27813;43.516;11.890;2024-01-30T20:24:21;14.88;;;8.70;;
42144;SDS011;27813;43.516;11.890;2024-01-30T20:28:25;9.63;;;5.35;;
42144;SDS011;27813;43.516;11.890;2024-01-30T20:32:32;15.30;;;7.80;;
42144;SDS011;27813;43.516;11.890;2024-01-30T20:36:36;14.73;;;7.70;;
42144;SDS011;27813;43.516;11.890;2024-01-30T20:40:40;9.50;;;5.23;;
42144;SDS011;27813;43.516;11.890;2024-01-30T20:44:46;7.13;;;4.47;;
42144;SDS011;27813;43.516;11.890;2024-01-30T20:48:51;10.68;;;6.07;;
42144;SDS011;27813;43.516;11.890;2024-01-30T20:52:55;12.48;;;5.88;;
42144;SDS011;27813;43.516;11.890;2024-01-30T20:57:00;13.02;;;8.00;;
42144;SDS011;27813;43.516;11.890;2024-01-30T21:01:04;23.02;;;9.88;;
42144;SDS011;27813;43.516;11.890;2024-01-30T21:05:08;12.63;;;7.93;;
42144;SDS011;27813;43.516;11.890;2024-01-30T21:09:13;14.45;;;8.05;;
42144;SDS011;27813;43.516;11.890;2024-01-30T21:17:22;17.90;;;8.13;;
42144;SDS011;27813;43.516;11.890;2024-01-30T21:21:30;15.13;;;8.27;;
42144;SDS011;27813;43.516;11.890;2024-01-30T21:29:42;14.57;;;8.15;;
42144;SDS011;27813;43.516;11.890;2024-01-30T21:33:47;14.63;;;6.97;;
42144;SDS011;27813;43.516;11.890;2024-01-30T21:37:51;18.20;;;8.70;;
42144;SDS011;27813;43.516;11.890;2024-01-30T21:41:57;18.85;;;8.43;;
42144;SDS011;27813;43.516;11.890;2024-01-30T21:46:01;16.03;;;8.60;;
42144;SDS011;27813;43.516;11.890;2024-01-30T21:50:10;22.17;;;11.35;;
42144;SDS011;27813;43.516;11.890;2024-01-30T21:54:15;20.23;;;10.25;;
42144;SDS011;27813;43.516;11.890;2024-01-30T21:58:19;15.55;;;6.75;;
42144;SDS011;27813;43.516;11.890;2024-01-30T22:02:24;9.97;;;5.57;;
42144;SDS011;27813;43.516;11.890;2024-01-30T22:06:28;12.27;;;7.13;;
42144;SDS011;27813;43.516;11.890;2024-01-30T22:10:33;9.57;;;5.43;;
42144;SDS011;27813;43.516;11.890;2024-01-30T22:14:38;10.40;;;6.15;;
42144;SDS011;27813;43.516;11.890;2024-01-30T22:18:42;17.47;;;7.53;;
42144;SDS011;27813;43.516;11.890;2024-01-30T22:22:46;11.93;;;5.83;;
42144;SDS011;27813;43.516;11.890;2024-01-30T22:26:53;20.17;;;8.27;;
42144;SDS011;27813;43.516;11.890;2024-01-30T22:30:58;14.73;;;8.65;;
42144;SDS011;27813;43.516;11.890;2024-01-30T22:35:03;18.67;;;7.83;;
42144;SDS011;27813;43.516;11.890;2024-01-30T22:39:15;21.83;;;8.77;;
42144;SDS011;27813;43.516;11.890;2024-01-30T22:43:21;12.95;;;6.50;;
42144;SDS011;27813;43.516;11.890;2024-01-30T22:47:25;8.93;;;4.50;;
42144;SDS011;27813;43.516;11.890;2024-01-30T22:51:29;11.87;;;5.77;;
42144;SDS011;27813;43.516;11.890;2024-01-30T22:55:33;10.38;;;6.55;;
42144;SDS011;27813;43.516;11.890;2024-01-30T22:59:38;11.63;;;5.90;;
42144;SDS011;27813;43.516;11.890;2024-01-30T23:03:42;11.23;;;6.43;;
42144;SDS011;27813;43.516;11.890;2024-01-30T23:07:46;10.90;;;5.70;;
42144;SDS011;27813;43.516;11.890;2024-01-30T23:11:51;13.40;;;6.53;;
42144;SDS011;27813;43.516;11.890;2024-01-30T23:15:56;14.35;;;7.47;;
42144;SDS011;27813;43.516;11.890;2024-01-30T23:20:01;16.57;;;7.97;;
42144;SDS011;27813;43.516;11.890;2024-01-30T23:24:05;13.40;;;7.22;;
42144;SDS011;27813;43.516;11.890;2024-01-30T23:28:10;9.07;;;5.67;;
42144;SDS011;27813;43.516;11.890;2024-01-30T23:32:14;9.53;;;5.87;;
42144;SDS011;27813;43.516;11.890;2024-01-30T23:36:33;19.02;;;9.43;;
42144;SDS011;27813;43.516;11.890;2024-01-30T23:40:45;17.83;;;8.68;;
42144;SDS011;27813;43.516;11.890;2024-01-30T23:44:51;19.08;;;7.45;;
42144;SDS011;27813;43.516;11.890;2024-01-30T23:48:57;13.20;;;7.03;;
42144;SDS011;27813;43.516;11.890;2024-01-30T23:53:03;14.68;;;8.07;;
42144;SDS011;27813;43.516;11.890;2024-01-30T23:57:11;11.73;;;6.82;;
